sensor_id;sensor_type;location;lat;lon;timestamp;P1;durP1;ratioP1;P2;durP2;ratioP2
55879;SDS011;41802;51.564;-1.838;2024-01-30T00:00:48;1.92;;;0.30;;
55879;SDS011;41802;51.564;-1.838;2024-01-30T00:03:17;2.47;;;0.30;;
55879;SDS011;41802;51.564;-1.838;2024-01-30T00:05:51;3.15;;;0.45;;
55879;SDS011;41802;51.564;-1.838;2024-01-30T00:08:22;4.87;;;0.60;;
55879;SDS011;41802;51.564;-1.838;2024-01-30T00:10:49;4.10;;;0.40;;
55879;SDS011;41802;51.564;-1.838;2024-01-30T00:13:18;3.78;;;0.55;;
55879;SDS011;41802;51.564;-1.838;2024-01-30T00:15:48;2.90;;;0.40;;
55879;SDS011;41802;51.564;-1.838;2024-01-30T00:18:16;4.35;;;0.50;;
55879;SDS011;41802;51.564;-1.838;2024-01-30T00:20:45;3.77;;;0.40;;
55879;SDS011;41802;51.564;-1.838;2024-01-30T00:23:12;2.85;;;0.40;;
55879;SDS011;41802;51.564;-1.838;2024-01-30T00:25:41;2.75;;;0.40;;
55879;SDS011;41802;51.564;-1.838;2024-01-30T00:28:09;2.63;;;0.20;;
55879;SDS011;41802;51.564;-1.838;2024-01-30T00:30:38;2.13;;;0.30;;
55879;SDS011;41802;51.564;-1.838;2024-01-30T00:33:07;3.77;;;0.40;;
55879;SDS011;41802;51.564;-1.838;2024-01-30T00:35:35;4.32;;;0.40;;
55879;SDS011;41802;51.564;-1.838;2024-01-30T00:38:03;6.45;;;0.43;;
55879;SDS011;41802;51.564;-1.838;2024-01-30T00:40:31;3.60;;;0.75;;
55879;SDS011;41802;51.564;-1.838;2024-01-30T00:42:58;2.25;;;0.30;;
55879;SDS011;41802;51.564;-1.838;2024-01-30T00:45:26;5.43;;;0.90;;
55879;SDS011;41802;51.564;-1.838;2024-01-30T00:47:55;3.35;;;0.40;;
55879;SDS011;41802;51.564;-1.838;2024-01-30T00:50:23;6.35;;;0.85;;
55879;SDS011;41802;51.564;-1.838;2024-01-30T00:52:51;4.53;;;0.70;;
55879;SDS011;41802;51.564;-1.838;2024-01-30T00:55:19;5.55;;;0.63;;
55879;SDS011;41802;51.564;-1.838;2024-01-30T00:57:47;3.80;;;0.50;;
55879;SDS011;41802;51.564;-1.838;2024-01-30T01:00:15;5.55;;;0.93;;
55879;SDS011;41802;51.564;-1.838;2024-01-30T01:02:43;3.40;;;0.70;;
55879;SDS011;41802;51.564;-1.838;2024-01-30T01:05:13;6.05;;;0.40;;
55879;SDS011;41802;51.564;-1.838;2024-01-30T01:07:41;8.60;;;0.80;;
55879;SDS011;41802;51.564;-1.838;2024-01-30T01:10:09;6.43;;;0.90;;
55879;SDS011;41802;51.564;-1.838;2024-01-30T01:12:38;4.90;;;0.98;;
55879;SDS011;41802;51.564;-1.838;2024-01-30T01:15:06;9.52;;;1.50;;
55879;SDS011;41802;51.564;-1.838;2024-01-30T01:17:36;7.53;;;1.00;;
55879;SDS011;41802;51.564;-1.838;2024-01-30T01:20:04;5.38;;;0.70;;
55879;SDS011;41802;51.564;-1.838;2024-01-30T01:22:34;7.90;;;0.80;;
55879;SDS011;41802;51.564;-1.838;2024-01-30T01:25:02;9.05;;;0.75;;
55879;SDS011;41802;51.564;-1.838;2024-01-30T01:27:30;4.13;;;0.47;;
55879;SDS011;41802;51.564;-1.838;2024-01-30T01:29:59;8.35;;;0.90;;
55879;SDS011;41802;51.564;-1.838;2024-01-30T01:32:27;7.38;;;0.70;;
55879;SDS011;41802;51.564;-1.838;2024-01-30T01:34:55;7.67;;;1.07;;
55879;SDS011;41802;51.564;-1.838;2024-01-30T01:37:23;6.18;;;0.70;;
55879;SDS011;41802;51.564;-1.838;2024-01-30T01:39:54;5.30;;;1.23;;
55879;SDS011;41802;51.564;-1.838;2024-01-30T01:42:22;5.05;;;1.00;;
55879;SDS011;41802;51.564;-1.838;2024-01-30T01:45:08;5.32;;;1.08;;
55879;SDS011;41802;51.564;-1.838;2024-01-30T01:47:36;5.23;;;1.27;;
55879;SDS011;41802;51.564;-1.838;2024-01-30T01:50:04;7.15;;;1.13;;
55879;SDS011;41802;51.564;-1.838;2024-01-30T01:52:32;7.50;;;1.10;;
55879;SDS011;41802;51.564;-1.838;2024-01-30T01:55:03;5.15;;;1.35;;
55879;SDS011;41802;51.564;-1.838;2024-01-30T01:57:30;6.32;;;1.25;;
55879;SDS011;41802;51.564;-1.838;2024-01-30T01:59:58;8.93;;;1.43;;
55879;SDS011;41802;51.564;-1.838;2024-01-30T02:02:26;7.10;;;1.45;;
55879;SDS011;41802;51.564;-1.838;2024-01-30T02:04:56;5.65;;;1.45;;
55879;SDS011;41802;51.564;-1.838;2024-01-30T02:07:24;4.85;;;1.00;;
55879;SDS011;41802;51.564;-1.838;2024-01-30T02:09:52;5.15;;;1.20;;
55879;SDS011;41802;51.564;-1.838;2024-01-30T02:12:21;6.40;;;1.47;;
55879;SDS011;41802;51.564;-1.838;2024-01-30T02:14:50;6.50;;;1.02;;
55879;SDS011;41802;51.564;-1.838;2024-01-30T02:17:17;6.60;;;1.27;;
55879;SDS011;41802;51.564;-1.838;2024-01-30T02:19:46;7.25;;;1.25;;
55879;SDS011;41802;51.564;-1.838;2024-01-30T02:22:16;4.28;;;1.10;;
55879;SDS011;41802;51.564;-1.838;2024-01-30T02:24:44;4.80;;;0.90;;
55879;SDS011;41802;51.564;-1.838;2024-01-30T02:27:12;4.00;;;0.88;;
55879;SDS011;41802;51.564;-1.838;2024-01-30T02:29:40;3.85;;;0.90;;
55879;SDS011;41802;51.564;-1.838;2024-01-30T02:32:08;3.83;;;0.80;;
55879;SDS011;41802;51.564;-1.838;2024-01-30T02:34:36;5.47;;;0.80;;
55879;SDS011;41802;51.564;-1.838;2024-01-30T02:37:04;3.47;;;0.60;;
55879;SDS011;41802;51.564;-1.838;2024-01-30T02:39:34;5.43;;;1.50;;
55879;SDS011;41802;51.564;-1.838;2024-01-30T02:42:02;4.47;;;0.88;;
55879;SDS011;41802;51.564;-1.838;2024-01-30T02:44:30;6.72;;;1.42;;
55879;SDS011;41802;51.564;-1.838;2024-01-30T02:46:58;5.93;;;1.13;;
55879;SDS011;41802;51.564;-1.838;2024-01-30T02:49:25;4.43;;;0.87;;
55879;SDS011;41802;51.564;-1.838;2024-01-30T02:51:53;6.63;;;1.50;;
55879;SDS011;41802;51.564;-1.838;2024-01-30T02:54:21;7.32;;;1.40;;
55879;SDS011;41802;51.564;-1.838;2024-01-30T02:56:50;7.25;;;1.95;;
55879;SDS011;41802;51.564;-1.838;2024-01-30T02:59:18;9.30;;;2.65;;
55879;SDS011;41802;51.564;-1.838;2024-01-30T03:01:46;7.67;;;2.17;;
55879;SDS011;41802;51.564;-1.838;2024-01-30T03:04:14;8.23;;;2.03;;
55879;SDS011;41802;51.564;-1.838;2024-01-30T03:06:44;9.32;;;2.33;;
55879;SDS011;41802;51.564;-1.838;2024-01-30T03:09:16;8.27;;;2.50;;
55879;SDS011;41802;51.564;-1.838;2024-01-30T03:11:44;8.30;;;2.95;;
55879;SDS011;41802;51.564;-1.838;2024-01-30T03:14:13;9.00;;;3.10;;
55879;SDS011;41802;51.564;-1.838;2024-01-30T03:16:41;8.93;;;3.30;;
55879;SDS011;41802;51.564;-1.838;2024-01-30T03:19:09;8.73;;;3.58;;
55879;SDS011;41802;51.564;-1.838;2024-01-30T03:21:37;9.18;;;3.85;;
55879;SDS011;41802;51.564;-1.838;2024-01-30T03:24:05;8.77;;;3.88;;
55879;SDS011;41802;51.564;-1.838;2024-01-30T03:26:33;8.07;;;3.70;;
55879;SDS011;41802;51.564;-1.838;2024-01-30T03:29:10;10.98;;;3.60;;
55879;SDS011;41802;51.564;-1.838;2024-01-30T03:31:39;7.03;;;3.28;;
55879;SDS011;41802;51.564;-1.838;2024-01-30T03:34:08;7.22;;;3.38;;
55879;SDS011;41802;51.564;-1.838;2024-01-30T03:36:36;9.02;;;4.15;;
55879;SDS011;41802;51.564;-1.838;2024-01-30T03:39:04;8.17;;;3.17;;
55879;SDS011;41802;51.564;-1.838;2024-01-30T03:41:32;9.75;;;2.92;;
55879;SDS011;41802;51.564;-1.838;2024-01-30T03:44:00;9.30;;;3.58;;
55879;SDS011;41802;51.564;-1.838;2024-01-30T03:46:28;7.43;;;3.00;;
55879;SDS011;41802;51.564;-1.838;2024-01-30T03:48:57;6.50;;;2.17;;
55879;SDS011;41802;51.564;-1.838;2024-01-30T03:51:24;6.70;;;1.87;;
55879;SDS011;41802;51.564;-1.838;2024-01-30T03:53:52;6.65;;;1.60;;
55879;SDS011;41802;51.564;-1.838;2024-01-30T03:56:20;7.13;;;1.80;;
55879;SDS011;41802;51.564;-1.838;2024-01-30T03:58:48;5.38;;;1.40;;
55879;SDS011;41802;51.564;-1.838;2024-01-30T04:01:16;3.58;;;0.90;;
55879;SDS011;41802;51.564;-1.838;2024-01-30T04:03:43;3.70;;;0.80;;
55879;SDS011;41802;51.564;-1.838;2024-01-30T04:06:13;3.08;;;0.77;;
55879;SDS011;41802;51.564;-1.838;2024-01-30T04:08:48;4.45;;;0.60;;
55879;SDS011;41802;51.564;-1.838;2024-01-30T04:11:18;2.97;;;0.52;;
55879;SDS011;41802;51.564;-1.838;2024-01-30T04:13:47;2.85;;;0.35;;
55879;SDS011;41802;51.564;-1.838;2024-01-30T04:16:19;1.93;;;0.27;;
55879;SDS011;41802;51.564;-1.838;2024-01-30T04:18:47;2.50;;;0.38;;
55879;SDS011;41802;51.564;-1.838;2024-01-30T04:21:17;2.10;;;0.30;;
55879;SDS011;41802;51.564;-1.838;2024-01-30T04:23:44;1.60;;;0.20;;
55879;SDS011;41802;51.564;-1.838;2024-01-30T04:26:12;2.13;;;0.20;;
55879;SDS011;41802;51.564;-1.838;2024-01-30T04:28:41;1.97;;;0.57;;
55879;SDS011;41802;51.564;-1.838;2024-01-30T04:31:08;2.50;;;0.47;;
55879;SDS011;41802;51.564;-1.838;2024-01-30T04:33:36;2.05;;;0.30;;
55879;SDS011;41802;51.564;-1.838;2024-01-30T04:36:04;1.63;;;0.20;;
55879;SDS011;41802;51.564;-1.838;2024-01-30T04:38:34;2.00;;;0.30;;
55879;SDS011;41802;51.564;-1.838;2024-01-30T04:41:02;2.17;;;0.33;;
55879;SDS011;41802;51.564;-1.838;2024-01-30T04:43:30;3.28;;;0.32;;
55879;SDS011;41802;51.564;-1.838;2024-01-30T04:45:58;2.33;;;0.40;;
55879;SDS011;41802;51.564;-1.838;2024-01-30T04:48:26;2.25;;;0.40;;
55879;SDS011;41802;51.564;-1.838;2024-01-30T04:50:53;2.42;;;0.40;;
55879;SDS011;41802;51.564;-1.838;2024-01-30T04:53:22;2.30;;;0.50;;
55879;SDS011;41802;51.564;-1.838;2024-01-30T04:55:51;2.83;;;0.55;;
55879;SDS011;41802;51.564;-1.838;2024-01-30T04:58:19;3.13;;;0.57;;
55879;SDS011;41802;51.564;-1.838;2024-01-30T05:00:47;2.67;;;0.30;;
55879;SDS011;41802;51.564;-1.838;2024-01-30T05:03:18;2.58;;;0.40;;
55879;SDS011;41802;51.564;-1.838;2024-01-30T05:05:46;2.50;;;0.50;;
55879;SDS011;41802;51.564;-1.838;2024-01-30T05:08:18;2.00;;;0.30;;
55879;SDS011;41802;51.564;-1.838;2024-01-30T05:10:45;2.35;;;0.40;;
55879;SDS011;41802;51.564;-1.838;2024-01-30T05:13:17;2.70;;;0.35;;
55879;SDS011;41802;51.564;-1.838;2024-01-30T05:15:45;2.60;;;0.50;;
55879;SDS011;41802;51.564;-1.838;2024-01-30T05:18:13;4.17;;;0.50;;
55879;SDS011;41802;51.564;-1.838;2024-01-30T05:20:41;1.30;;;0.20;;
55879;SDS011;41802;51.564;-1.838;2024-01-30T05:23:14;1.75;;;0.30;;
55879;SDS011;41802;51.564;-1.838;2024-01-30T05:25:42;1.70;;;0.20;;
55879;SDS011;41802;51.564;-1.838;2024-01-30T05:28:10;2.60;;;0.20;;
55879;SDS011;41802;51.564;-1.838;2024-01-30T05:30:42;1.53;;;0.20;;
55879;SDS011;41802;51.564;-1.838;2024-01-30T05:33:11;2.05;;;0.20;;
55879;SDS011;41802;51.564;-1.838;2024-01-30T05:35:39;1.17;;;0.10;;
55879;SDS011;41802;51.564;-1.838;2024-01-30T05:38:11;1.27;;;0.15;;
55879;SDS011;41802;51.564;-1.838;2024-01-30T05:40:39;3.03;;;0.32;;
55879;SDS011;41802;51.564;-1.838;2024-01-30T05:43:07;1.47;;;0.20;;
55879;SDS011;41802;51.564;-1.838;2024-01-30T05:45:35;1.77;;;0.20;;
55879;SDS011;41802;51.564;-1.838;2024-01-30T05:48:04;2.00;;;0.20;;
55879;SDS011;41802;51.564;-1.838;2024-01-30T05:50:32;1.67;;;0.20;;
55879;SDS011;41802;51.564;-1.838;2024-01-30T05:53:00;2.17;;;0.20;;
55879;SDS011;41802;51.564;-1.838;2024-01-30T05:55:28;1.80;;;0.20;;
55879;SDS011;41802;51.564;-1.838;2024-01-30T05:57:57;3.00;;;0.40;;
55879;SDS011;41802;51.564;-1.838;2024-01-30T06:00:25;2.47;;;0.20;;
55879;SDS011;41802;51.564;-1.838;2024-01-30T06:02:55;1.40;;;0.20;;
55879;SDS011;41802;51.564;-1.838;2024-01-30T06:05:24;1.33;;;0.20;;
55879;SDS011;41802;51.564;-1.838;2024-01-30T06:07:52;1.60;;;0.20;;
55879;SDS011;41802;51.564;-1.838;2024-01-30T06:10:20;1.73;;;0.20;;
55879;SDS011;41802;51.564;-1.838;2024-01-30T06:12:48;2.47;;;0.32;;
55879;SDS011;41802;51.564;-1.838;2024-01-30T06:15:16;4.25;;;0.20;;
55879;SDS011;41802;51.564;-1.838;2024-01-30T06:17:44;1.77;;;0.25;;
55879;SDS011;41802;51.564;-1.838;2024-01-30T06:20:12;2.03;;;0.20;;
55879;SDS011;41802;51.564;-1.838;2024-01-30T06:22:41;2.22;;;0.20;;
55879;SDS011;41802;51.564;-1.838;2024-01-30T06:25:10;3.05;;;0.40;;
55879;SDS011;41802;51.564;-1.838;2024-01-30T06:27:38;1.95;;;0.20;;
55879;SDS011;41802;51.564;-1.838;2024-01-30T06:30:12;1.50;;;0.20;;
55879;SDS011;41802;51.564;-1.838;2024-01-30T06:32:44;2.23;;;0.30;;
55879;SDS011;41802;51.564;-1.838;2024-01-30T06:35:13;2.30;;;0.30;;
55879;SDS011;41802;51.564;-1.838;2024-01-30T06:37:42;1.50;;;0.30;;
55879;SDS011;41802;51.564;-1.838;2024-01-30T06:40:10;3.90;;;0.40;;
55879;SDS011;41802;51.564;-1.838;2024-01-30T06:42:38;3.25;;;0.50;;
55879;SDS011;41802;51.564;-1.838;2024-01-30T06:45:06;1.63;;;0.20;;
55879;SDS011;41802;51.564;-1.838;2024-01-30T06:47:34;2.20;;;0.30;;
55879;SDS011;41802;51.564;-1.838;2024-01-30T06:50:04;2.05;;;0.30;;
55879;SDS011;41802;51.564;-1.838;2024-01-30T06:52:32;2.97;;;0.50;;
55879;SDS011;41802;51.564;-1.838;2024-01-30T06:55:03;2.58;;;0.30;;
55879;SDS011;41802;51.564;-1.838;2024-01-30T06:57:31;2.40;;;0.27;;
55879;SDS011;41802;51.564;-1.838;2024-01-30T06:59:58;2.65;;;0.75;;
55879;SDS011;41802;51.564;-1.838;2024-01-30T07:02:26;1.85;;;0.17;;
55879;SDS011;41802;51.564;-1.838;2024-01-30T07:04:54;1.85;;;0.10;;
55879;SDS011;41802;51.564;-1.838;2024-01-30T07:07:22;1.67;;;0.20;;
55879;SDS011;41802;51.564;-1.838;2024-01-30T07:09:50;1.90;;;0.23;;
55879;SDS011;41802;51.564;-1.838;2024-01-30T07:12:24;1.52;;;0.10;;
55879;SDS011;41802;51.564;-1.838;2024-01-30T07:14:53;2.78;;;0.20;;
55879;SDS011;41802;51.564;-1.838;2024-01-30T07:17:22;2.42;;;0.20;;
55879;SDS011;41802;51.564;-1.838;2024-01-30T07:19:50;2.05;;;0.28;;
55879;SDS011;41802;51.564;-1.838;2024-01-30T07:22:18;2.77;;;0.30;;
55879;SDS011;41802;51.564;-1.838;2024-01-30T07:24:46;1.80;;;0.30;;
55879;SDS011;41802;51.564;-1.838;2024-01-30T07:27:16;2.53;;;0.30;;
55879;SDS011;41802;51.564;-1.838;2024-01-30T07:29:46;2.97;;;0.20;;
55879;SDS011;41802;51.564;-1.838;2024-01-30T07:32:16;2.47;;;0.20;;
55879;SDS011;41802;51.564;-1.838;2024-01-30T07:34:46;1.97;;;0.33;;
55879;SDS011;41802;51.564;-1.838;2024-01-30T07:37:32;2.03;;;0.20;;
55879;SDS011;41802;51.564;-1.838;2024-01-30T07:40:00;2.22;;;0.30;;
55879;SDS011;41802;51.564;-1.838;2024-01-30T07:42:29;3.53;;;0.30;;
55879;SDS011;41802;51.564;-1.838;2024-01-30T07:44:58;2.03;;;0.25;;
55879;SDS011;41802;51.564;-1.838;2024-01-30T07:47:26;2.50;;;0.20;;
55879;SDS011;41802;51.564;-1.838;2024-01-30T07:49:53;2.03;;;0.20;;
55879;SDS011;41802;51.564;-1.838;2024-01-30T07:52:21;2.08;;;0.30;;
55879;SDS011;41802;51.564;-1.838;2024-01-30T07:54:49;2.65;;;0.20;;
55879;SDS011;41802;51.564;-1.838;2024-01-30T07:57:17;2.55;;;0.40;;
55879;SDS011;41802;51.564;-1.838;2024-01-30T07:59:45;1.27;;;0.27;;
55879;SDS011;41802;51.564;-1.838;2024-01-30T08:02:14;2.42;;;0.25;;
55879;SDS011;41802;51.564;-1.838;2024-01-30T08:04:42;1.85;;;0.20;;
55879;SDS011;41802;51.564;-1.838;2024-01-30T08:07:10;1.88;;;0.20;;
55879;SDS011;41802;51.564;-1.838;2024-01-30T08:09:39;3.03;;;0.38;;
55879;SDS011;41802;51.564;-1.838;2024-01-30T08:12:07;1.50;;;0.20;;
55879;SDS011;41802;51.564;-1.838;2024-01-30T08:14:35;3.10;;;0.30;;
55879;SDS011;41802;51.564;-1.838;2024-01-30T08:17:03;3.88;;;0.30;;
55879;SDS011;41802;51.564;-1.838;2024-01-30T08:19:32;3.28;;;0.40;;
55879;SDS011;41802;51.564;-1.838;2024-01-30T08:22:00;2.70;;;0.40;;
55879;SDS011;41802;51.564;-1.838;2024-01-30T08:24:28;3.35;;;0.30;;
55879;SDS011;41802;51.564;-1.838;2024-01-30T08:26:56;3.83;;;0.33;;
55879;SDS011;41802;51.564;-1.838;2024-01-30T08:29:25;2.92;;;0.30;;
55879;SDS011;41802;51.564;-1.838;2024-01-30T08:31:53;3.80;;;0.57;;
55879;SDS011;41802;51.564;-1.838;2024-01-30T08:34:22;3.15;;;0.60;;
55879;SDS011;41802;51.564;-1.838;2024-01-30T08:36:51;3.95;;;0.52;;
55879;SDS011;41802;51.564;-1.838;2024-01-30T08:39:19;3.70;;;0.50;;
55879;SDS011;41802;51.564;-1.838;2024-01-30T08:41:46;4.20;;;0.80;;
55879;SDS011;41802;51.564;-1.838;2024-01-30T08:44:14;6.93;;;1.30;;
55879;SDS011;41802;51.564;-1.838;2024-01-30T08:46:42;5.18;;;1.25;;
55879;SDS011;41802;51.564;-1.838;2024-01-30T08:49:11;3.80;;;0.77;;
55879;SDS011;41802;51.564;-1.838;2024-01-30T08:51:41;5.10;;;1.00;;
55879;SDS011;41802;51.564;-1.838;2024-01-30T08:54:10;4.25;;;0.80;;
55879;SDS011;41802;51.564;-1.838;2024-01-30T08:56:38;6.68;;;1.00;;
55879;SDS011;41802;51.564;-1.838;2024-01-30T08:59:06;5.82;;;0.90;;
55879;SDS011;41802;51.564;-1.838;2024-01-30T09:01:36;10.40;;;1.38;;
55879;SDS011;41802;51.564;-1.838;2024-01-30T09:04:05;7.47;;;0.80;;
55879;SDS011;41802;51.564;-1.838;2024-01-30T09:06:33;4.53;;;1.20;;
55879;SDS011;41802;51.564;-1.838;2024-01-30T09:09:01;10.15;;;1.55;;
55879;SDS011;41802;51.564;-1.838;2024-01-30T09:11:30;5.95;;;1.17;;
55879;SDS011;41802;51.564;-1.838;2024-01-30T09:13:58;5.60;;;1.23;;
55879;SDS011;41802;51.564;-1.838;2024-01-30T09:16:44;6.70;;;1.40;;
55879;SDS011;41802;51.564;-1.838;2024-01-30T09:19:12;9.00;;;1.10;;
55879;SDS011;41802;51.564;-1.838;2024-01-30T09:21:41;5.47;;;1.10;;
55879;SDS011;41802;51.564;-1.838;2024-01-30T09:24:09;10.75;;;1.23;;
55879;SDS011;41802;51.564;-1.838;2024-01-30T09:26:49;4.35;;;1.20;;
55879;SDS011;41802;51.564;-1.838;2024-01-30T09:29:18;6.53;;;1.07;;
55879;SDS011;41802;51.564;-1.838;2024-01-30T09:31:46;6.25;;;1.38;;
55879;SDS011;41802;51.564;-1.838;2024-01-30T09:34:16;5.88;;;1.13;;
55879;SDS011;41802;51.564;-1.838;2024-01-30T09:36:44;7.22;;;1.38;;
55879;SDS011;41802;51.564;-1.838;2024-01-30T09:39:11;5.63;;;1.02;;
55879;SDS011;41802;51.564;-1.838;2024-01-30T09:41:44;4.30;;;0.67;;
55879;SDS011;41802;51.564;-1.838;2024-01-30T09:44:14;7.53;;;0.95;;
55879;SDS011;41802;51.564;-1.838;2024-01-30T09:46:43;7.07;;;0.70;;
55879;SDS011;41802;51.564;-1.838;2024-01-30T09:49:14;5.60;;;0.77;;
55879;SDS011;41802;51.564;-1.838;2024-01-30T09:51:46;4.32;;;0.68;;
55879;SDS011;41802;51.564;-1.838;2024-01-30T09:54:16;4.03;;;0.67;;
55879;SDS011;41802;51.564;-1.838;2024-01-30T09:56:44;3.92;;;0.55;;
55879;SDS011;41802;51.564;-1.838;2024-01-30T09:59:12;4.72;;;0.80;;
55879;SDS011;41802;51.564;-1.838;2024-01-30T10:01:59;4.45;;;0.70;;
55879;SDS011;41802;51.564;-1.838;2024-01-30T10:04:26;7.03;;;0.52;;
55879;SDS011;41802;51.564;-1.838;2024-01-30T10:06:54;4.20;;;0.50;;
55879;SDS011;41802;51.564;-1.838;2024-01-30T10:09:22;4.57;;;0.82;;
55879;SDS011;41802;51.564;-1.838;2024-01-30T10:11:50;5.93;;;0.68;;
55879;SDS011;41802;51.564;-1.838;2024-01-30T10:14:18;4.88;;;0.70;;
55879;SDS011;41802;51.564;-1.838;2024-01-30T10:16:46;4.55;;;0.60;;
55879;SDS011;41802;51.564;-1.838;2024-01-30T10:19:16;3.20;;;0.60;;
55879;SDS011;41802;51.564;-1.838;2024-01-30T10:21:47;3.25;;;0.50;;
55879;SDS011;41802;51.564;-1.838;2024-01-30T10:24:17;5.03;;;0.40;;
55879;SDS011;41802;51.564;-1.838;2024-01-30T10:26:45;3.83;;;0.35;;
55879;SDS011;41802;51.564;-1.838;2024-01-30T10:29:14;4.00;;;0.60;;
55879;SDS011;41802;51.564;-1.838;2024-01-30T10:31:42;4.13;;;0.50;;
55879;SDS011;41802;51.564;-1.838;2024-01-30T10:34:10;2.30;;;0.30;;
55879;SDS011;41802;51.564;-1.838;2024-01-30T10:36:50;2.63;;;0.40;;
55879;SDS011;41802;51.564;-1.838;2024-01-30T10:39:17;2.05;;;0.22;;
55879;SDS011;41802;51.564;-1.838;2024-01-30T10:41:47;3.28;;;0.30;;
55879;SDS011;41802;51.564;-1.838;2024-01-30T10:44:17;2.92;;;0.50;;
55879;SDS011;41802;51.564;-1.838;2024-01-30T10:46:47;5.30;;;0.33;;
55879;SDS011;41802;51.564;-1.838;2024-01-30T10:49:18;2.13;;;0.30;;
55879;SDS011;41802;51.564;-1.838;2024-01-30T10:51:47;4.65;;;0.50;;
55879;SDS011;41802;51.564;-1.838;2024-01-30T10:54:17;4.38;;;0.60;;
55879;SDS011;41802;51.564;-1.838;2024-01-30T10:56:45;3.35;;;0.50;;
55879;SDS011;41802;51.564;-1.838;2024-01-30T10:59:13;4.60;;;1.10;;
55879;SDS011;41802;51.564;-1.838;2024-01-30T11:01:42;4.05;;;0.55;;
55879;SDS011;41802;51.564;-1.838;2024-01-30T11:04:10;4.75;;;0.70;;
55879;SDS011;41802;51.564;-1.838;2024-01-30T11:06:40;3.97;;;0.75;;
55879;SDS011;41802;51.564;-1.838;2024-01-30T11:09:10;7.75;;;1.00;;
55879;SDS011;41802;51.564;-1.838;2024-01-30T11:11:52;3.03;;;0.40;;
55879;SDS011;41802;51.564;-1.838;2024-01-30T11:14:26;4.80;;;0.95;;
55879;SDS011;41802;51.564;-1.838;2024-01-30T11:16:58;6.05;;;0.90;;
55879;SDS011;41802;51.564;-1.838;2024-01-30T11:19:27;6.03;;;1.13;;
55879;SDS011;41802;51.564;-1.838;2024-01-30T11:21:58;6.00;;;1.40;;
55879;SDS011;41802;51.564;-1.838;2024-01-30T11:24:27;4.97;;;0.90;;
55879;SDS011;41802;51.564;-1.838;2024-01-30T11:26:56;4.53;;;0.75;;
55879;SDS011;41802;51.564;-1.838;2024-01-30T11:29:25;2.40;;;0.30;;
55879;SDS011;41802;51.564;-1.838;2024-01-30T11:31:53;2.92;;;0.32;;
55879;SDS011;41802;51.564;-1.838;2024-01-30T11:34:21;2.45;;;0.35;;
55879;SDS011;41802;51.564;-1.838;2024-01-30T11:36:51;2.50;;;0.30;;
55879;SDS011;41802;51.564;-1.838;2024-01-30T11:39:21;2.20;;;0.30;;
55879;SDS011;41802;51.564;-1.838;2024-01-30T11:41:50;1.80;;;0.20;;
55879;SDS011;41802;51.564;-1.838;2024-01-30T11:44:20;2.38;;;0.30;;
55879;SDS011;41802;51.564;-1.838;2024-01-30T11:46:48;4.70;;;0.40;;
55879;SDS011;41802;51.564;-1.838;2024-01-30T11:49:16;2.37;;;0.33;;
55879;SDS011;41802;51.564;-1.838;2024-01-30T11:51:45;2.60;;;0.30;;
55879;SDS011;41802;51.564;-1.838;2024-01-30T11:54:16;1.90;;;0.28;;
55879;SDS011;41802;51.564;-1.838;2024-01-30T11:56:44;2.42;;;0.40;;
55879;SDS011;41802;51.564;-1.838;2024-01-30T11:59:11;1.90;;;0.40;;
55879;SDS011;41802;51.564;-1.838;2024-01-30T12:01:41;4.80;;;0.40;;
55879;SDS011;41802;51.564;-1.838;2024-01-30T12:04:09;1.98;;;0.22;;
55879;SDS011;41802;51.564;-1.838;2024-01-30T12:06:38;2.15;;;0.40;;
55879;SDS011;41802;51.564;-1.838;2024-01-30T12:09:06;3.47;;;0.30;;
55879;SDS011;41802;51.564;-1.838;2024-01-30T12:11:43;3.47;;;0.40;;
55879;SDS011;41802;51.564;-1.838;2024-01-30T12:14:11;2.53;;;0.30;;
55879;SDS011;41802;51.564;-1.838;2024-01-30T12:16:40;1.65;;;0.20;;
55879;SDS011;41802;51.564;-1.838;2024-01-30T12:19:09;2.75;;;0.38;;
55879;SDS011;41802;51.564;-1.838;2024-01-30T12:21:38;2.17;;;0.40;;
55879;SDS011;41802;51.564;-1.838;2024-01-30T12:24:06;2.30;;;0.30;;
55879;SDS011;41802;51.564;-1.838;2024-01-30T12:26:49;1.65;;;0.20;;
55879;SDS011;41802;51.564;-1.838;2024-01-30T12:29:19;2.35;;;0.40;;
55879;SDS011;41802;51.564;-1.838;2024-01-30T12:31:49;3.55;;;0.70;;
55879;SDS011;41802;51.564;-1.838;2024-01-30T12:34:20;3.05;;;0.20;;
55879;SDS011;41802;51.564;-1.838;2024-01-30T12:36:48;2.47;;;0.30;;
55879;SDS011;41802;51.564;-1.838;2024-01-30T12:39:16;2.03;;;0.32;;
55879;SDS011;41802;51.564;-1.838;2024-01-30T12:41:44;2.30;;;0.40;;
55879;SDS011;41802;51.564;-1.838;2024-01-30T12:44:13;3.33;;;0.60;;
55879;SDS011;41802;51.564;-1.838;2024-01-30T12:46:41;4.90;;;0.60;;
55879;SDS011;41802;51.564;-1.838;2024-01-30T12:49:12;2.60;;;0.30;;
55879;SDS011;41802;51.564;-1.838;2024-01-30T12:51:41;3.67;;;0.40;;
55879;SDS011;41802;51.564;-1.838;2024-01-30T12:54:09;2.55;;;0.57;;
55879;SDS011;41802;51.564;-1.838;2024-01-30T12:56:37;2.70;;;0.32;;
55879;SDS011;41802;51.564;-1.838;2024-01-30T12:59:05;3.92;;;0.40;;
55879;SDS011;41802;51.564;-1.838;2024-01-30T13:01:33;3.40;;;0.40;;
55879;SDS011;41802;51.564;-1.838;2024-01-30T13:04:01;4.63;;;0.60;;
55879;SDS011;41802;51.564;-1.838;2024-01-30T13:06:31;3.58;;;0.73;;
55879;SDS011;41802;51.564;-1.838;2024-01-30T13:08:59;5.03;;;0.80;;
55879;SDS011;41802;51.564;-1.838;2024-01-30T13:11:27;3.50;;;0.45;;
55879;SDS011;41802;51.564;-1.838;2024-01-30T13:13:55;2.83;;;0.50;;
55879;SDS011;41802;51.564;-1.838;2024-01-30T13:16:24;3.03;;;0.50;;
55879;SDS011;41802;51.564;-1.838;2024-01-30T13:18:52;2.58;;;0.35;;
55879;SDS011;41802;51.564;-1.838;2024-01-30T13:21:22;1.88;;;0.30;;
55879;SDS011;41802;51.564;-1.838;2024-01-30T13:23:51;1.92;;;0.20;;
55879;SDS011;41802;51.564;-1.838;2024-01-30T13:26:20;2.30;;;0.33;;
55879;SDS011;41802;51.564;-1.838;2024-01-30T13:28:48;2.13;;;0.40;;
55879;SDS011;41802;51.564;-1.838;2024-01-30T13:31:17;4.22;;;0.50;;
55879;SDS011;41802;51.564;-1.838;2024-01-30T13:33:45;3.13;;;0.60;;
55879;SDS011;41802;51.564;-1.838;2024-01-30T13:36:13;2.45;;;0.32;;
55879;SDS011;41802;51.564;-1.838;2024-01-30T13:38:43;2.07;;;0.37;;
55879;SDS011;41802;51.564;-1.838;2024-01-30T13:41:12;2.20;;;0.30;;
55879;SDS011;41802;51.564;-1.838;2024-01-30T13:43:40;3.25;;;0.32;;
55879;SDS011;41802;51.564;-1.838;2024-01-30T13:46:07;3.00;;;0.40;;
55879;SDS011;41802;51.564;-1.838;2024-01-30T13:48:35;2.50;;;0.40;;
55879;SDS011;41802;51.564;-1.838;2024-01-30T13:51:03;2.93;;;0.43;;
55879;SDS011;41802;51.564;-1.838;2024-01-30T13:53:32;3.45;;;0.43;;
55879;SDS011;41802;51.564;-1.838;2024-01-30T13:56:00;3.20;;;0.50;;
55879;SDS011;41802;51.564;-1.838;2024-01-30T13:58:29;2.08;;;0.30;;
55879;SDS011;41802;51.564;-1.838;2024-01-30T14:01:00;2.13;;;0.30;;
55879;SDS011;41802;51.564;-1.838;2024-01-30T14:03:28;6.03;;;0.50;;
55879;SDS011;41802;51.564;-1.838;2024-01-30T14:05:56;2.65;;;0.40;;
55879;SDS011;41802;51.564;-1.838;2024-01-30T14:08:23;2.30;;;0.40;;
55879;SDS011;41802;51.564;-1.838;2024-01-30T14:10:54;3.85;;;0.47;;
55879;SDS011;41802;51.564;-1.838;2024-01-30T14:13:22;3.78;;;0.40;;
55879;SDS011;41802;51.564;-1.838;2024-01-30T14:15:53;2.80;;;0.50;;
55879;SDS011;41802;51.564;-1.838;2024-01-30T14:18:20;2.95;;;0.40;;
55879;SDS011;41802;51.564;-1.838;2024-01-30T14:20:48;1.73;;;0.28;;
55879;SDS011;41802;51.564;-1.838;2024-01-30T14:23:17;3.08;;;0.20;;
55879;SDS011;41802;51.564;-1.838;2024-01-30T14:25:45;1.60;;;0.20;;
55879;SDS011;41802;51.564;-1.838;2024-01-30T14:28:12;2.57;;;0.40;;
55879;SDS011;41802;51.564;-1.838;2024-01-30T14:30:40;2.65;;;0.40;;
55879;SDS011;41802;51.564;-1.838;2024-01-30T14:33:10;2.90;;;0.82;;
55879;SDS011;41802;51.564;-1.838;2024-01-30T14:35:41;2.33;;;0.30;;
55879;SDS011;41802;51.564;-1.838;2024-01-30T14:38:09;2.15;;;0.22;;
55879;SDS011;41802;51.564;-1.838;2024-01-30T14:40:38;2.10;;;0.20;;
55879;SDS011;41802;51.564;-1.838;2024-01-30T14:43:06;1.77;;;0.35;;